sensor_id;sensor_type;location;lat;lon;timestamp;P1;durP1;ratioP1;P2;durP2;ratioP2
7381;SDS011;3732;48.052;7.800;2022-09-17T00:01:52;1.50;;;1.10;;
7381;SDS011;3732;48.052;7.800;2022-09-17T00:04:19;1.27;;;1.17;;
7381;SDS011;3732;48.052;7.800;2022-09-17T00:06:47;1.17;;;1.07;;
7381;SDS011;3732;48.052;7.800;2022-09-17T00:09:14;1.27;;;0.93;;
7381;SDS011;3732;48.052;7.800;2022-09-17T00:11:41;1.30;;;1.10;;
7381;SDS011;3732;48.052;7.800;2022-09-17T00:14:13;3.57;;;0.80;;
7381;SDS011;3732;48.052;7.800;2022-09-17T00:16:41;1.80;;;0.80;;
7381;SDS011;3732;48.052;7.800;2022-09-17T00:19:11;1.10;;;1.00;;
7381;SDS011;3732;48.052;7.800;2022-09-17T00:21:38;1.80;;;1.00;;
7381;SDS011;3732;48.052;7.800;2022-09-17T00:24:06;0.80;;;0.80;;
7381;SDS011;3732;48.052;7.800;2022-09-17T00:26:33;1.38;;;1.00;;
7381;SDS011;3732;48.052;7.800;2022-09-17T00:29:01;1.00;;;0.90;;
7381;SDS011;3732;48.052;7.800;2022-09-17T00:31:30;2.23;;;0.90;;
7381;SDS011;3732;48.052;7.800;2022-09-17T00:33:58;1.07;;;1.00;;
7381;SDS011;3732;48.052;7.800;2022-09-17T00:36:25;2.23;;;1.00;;
7381;SDS011;3732;48.052;7.800;2022-09-17T00:38:54;2.27;;;0.97;;
7381;SDS011;3732;48.052;7.800;2022-09-17T00:41:22;0.87;;;0.87;;
7381;SDS011;3732;48.052;7.800;2022-09-17T00:43:51;1.10;;;0.90;;
7381;SDS011;3732;48.052;7.800;2022-09-17T00:46:30;1.20;;;0.90;;
7381;SDS011;3732;48.052;7.800;2022-09-17T00:49:00;1.07;;;0.90;;
7381;SDS011;3732;48.052;7.800;2022-09-17T00:51:29;3.10;;;1.00;;
7381;SDS011;3732;48.052;7.800;2022-09-17T00:53:59;3.10;;;1.00;;
7381;SDS011;3732;48.052;7.800;2022-09-17T00:56:28;0.80;;;0.80;;
7381;SDS011;3732;48.052;7.800;2022-09-17T00:58:55;0.90;;;0.90;;
7381;SDS011;3732;48.052;7.800;2022-09-17T01:01:23;1.73;;;1.00;;
7381;SDS011;3732;48.052;7.800;2022-09-17T01:03:52;0.90;;;0.90;;
7381;SDS011;3732;48.052;7.800;2022-09-17T01:06:21;0.80;;;0.80;;
7381;SDS011;3732;48.052;7.800;2022-09-17T01:11:37;2.07;;;0.93;;
7381;SDS011;3732;48.052;7.800;2022-09-17T01:14:12;0.90;;;0.90;;
7381;SDS011;3732;48.052;7.800;2022-09-17T01:16:45;2.23;;;1.07;;
7381;SDS011;3732;48.052;7.800;2022-09-17T01:19:23;1.00;;;0.87;;
7381;SDS011;3732;48.052;7.800;2022-09-17T01:21:58;0.77;;;0.77;;
7381;SDS011;3732;48.052;7.800;2022-09-17T01:24:38;1.17;;;0.90;;
7381;SDS011;3732;48.052;7.800;2022-09-17T01:27:17;1.43;;;1.00;;
7381;SDS011;3732;48.052;7.800;2022-09-17T01:29:54;0.90;;;0.90;;
7381;SDS011;3732;48.052;7.800;2022-09-17T01:32:27;0.97;;;0.97;;
7381;SDS011;3732;48.052;7.800;2022-09-17T01:34:57;1.63;;;0.90;;
7381;SDS011;3732;48.052;7.800;2022-09-17T01:37:29;1.53;;;0.90;;
7381;SDS011;3732;48.052;7.800;2022-09-17T01:39:58;1.40;;;0.77;;
7381;SDS011;3732;48.052;7.800;2022-09-17T01:42:28;2.63;;;1.10;;
7381;SDS011;3732;48.052;7.800;2022-09-17T01:45:02;1.63;;;1.10;;
7381;SDS011;3732;48.052;7.800;2022-09-17T01:47:34;1.00;;;1.00;;
7381;SDS011;3732;48.052;7.800;2022-09-17T01:50:04;1.33;;;1.00;;
7381;SDS011;3732;48.052;7.800;2022-09-17T01:52:34;1.50;;;1.10;;
7381;SDS011;3732;48.052;7.800;2022-09-17T01:55:03;1.80;;;0.97;;
7381;SDS011;3732;48.052;7.800;2022-09-17T01:57:31;1.37;;;1.20;;
7381;SDS011;3732;48.052;7.800;2022-09-17T02:00:00;1.50;;;0.83;;
7381;SDS011;3732;48.052;7.800;2022-09-17T02:02:29;1.90;;;1.00;;
7381;SDS011;3732;48.052;7.800;2022-09-17T02:05:01;2.00;;;1.20;;
7381;SDS011;3732;48.052;7.800;2022-09-17T02:07:30;1.40;;;1.00;;
7381;SDS011;3732;48.052;7.800;2022-09-17T02:09:58;1.10;;;1.00;;
7381;SDS011;3732;48.052;7.800;2022-09-17T02:12:29;1.00;;;1.00;;
7381;SDS011;3732;48.052;7.800;2022-09-17T02:14:58;1.23;;;0.87;;
7381;SDS011;3732;48.052;7.800;2022-09-17T02:17:28;3.77;;;1.30;;
7381;SDS011;3732;48.052;7.800;2022-09-17T02:19:56;1.90;;;1.00;;
7381;SDS011;3732;48.052;7.800;2022-09-17T02:22:27;0.73;;;0.73;;
7381;SDS011;3732;48.052;7.800;2022-09-17T02:24:58;1.17;;;0.93;;
7381;SDS011;3732;48.052;7.800;2022-09-17T02:27:30;1.90;;;0.97;;
7381;SDS011;3732;48.052;7.800;2022-09-17T02:30:00;1.23;;;0.80;;
7381;SDS011;3732;48.052;7.800;2022-09-17T02:32:27;2.70;;;0.90;;
7381;SDS011;3732;48.052;7.800;2022-09-17T02:34:54;0.87;;;0.87;;
7381;SDS011;3732;48.052;7.800;2022-09-17T02:37:22;2.23;;;1.20;;
7381;SDS011;3732;48.052;7.800;2022-09-17T02:39:51;0.70;;;0.70;;
7381;SDS011;3732;48.052;7.800;2022-09-17T02:42:20;1.33;;;0.90;;
7381;SDS011;3732;48.052;7.800;2022-09-17T02:44:52;3.57;;;1.17;;
7381;SDS011;3732;48.052;7.800;2022-09-17T02:47:30;1.43;;;0.70;;
7381;SDS011;3732;48.052;7.800;2022-09-17T02:50:11;0.80;;;0.80;;
7381;SDS011;3732;48.052;7.800;2022-09-17T02:52:44;0.87;;;0.80;;
7381;SDS011;3732;48.052;7.800;2022-09-17T02:55:16;2.70;;;0.90;;
7381;SDS011;3732;48.052;7.800;2022-09-17T02:57:44;1.63;;;0.90;;
7381;SDS011;3732;48.052;7.800;2022-09-17T03:00:13;2.27;;;1.07;;
7381;SDS011;3732;48.052;7.800;2022-09-17T03:02:42;4.23;;;0.90;;
7381;SDS011;3732;48.052;7.800;2022-09-17T03:05:11;2.10;;;1.00;;
7381;SDS011;3732;48.052;7.800;2022-09-17T03:07:39;1.00;;;1.00;;
7381;SDS011;3732;48.052;7.800;2022-09-17T03:10:06;4.30;;;0.93;;
7381;SDS011;3732;48.052;7.800;2022-09-17T03:12:35;3.47;;;1.10;;
7381;SDS011;3732;48.052;7.800;2022-09-17T03:15:03;1.20;;;0.93;;
7381;SDS011;3732;48.052;7.800;2022-09-17T03:17:30;1.43;;;1.17;;
7381;SDS011;3732;48.052;7.800;2022-09-17T03:19:58;1.77;;;1.17;;
7381;SDS011;3732;48.052;7.800;2022-09-17T03:22:25;1.83;;;0.93;;
7381;SDS011;3732;48.052;7.800;2022-09-17T03:24:52;1.67;;;1.07;;
7381;SDS011;3732;48.052;7.800;2022-09-17T03:27:19;2.27;;;1.20;;
7381;SDS011;3732;48.052;7.800;2022-09-17T03:29:48;1.77;;;1.00;;
7381;SDS011;3732;48.052;7.800;2022-09-17T03:32:15;1.50;;;1.20;;
7381;SDS011;3732;48.052;7.800;2022-09-17T03:34:42;0.87;;;0.87;;
7381;SDS011;3732;48.052;7.800;2022-09-17T03:37:11;1.53;;;1.20;;
7381;SDS011;3732;48.052;7.800;2022-09-17T03:39:38;3.50;;;1.37;;
7381;SDS011;3732;48.052;7.800;2022-09-17T03:42:05;2.90;;;1.20;;
7381;SDS011;3732;48.052;7.800;2022-09-17T03:44:32;2.43;;;1.00;;
7381;SDS011;3732;48.052;7.800;2022-09-17T03:47:01;1.47;;;1.13;;
7381;SDS011;3732;48.052;7.800;2022-09-17T03:49:28;1.13;;;1.10;;
7381;SDS011;3732;48.052;7.800;2022-09-17T03:51:55;1.47;;;1.00;;
7381;SDS011;3732;48.052;7.800;2022-09-17T03:54:23;4.10;;;1.00;;
7381;SDS011;3732;48.052;7.800;2022-09-17T03:56:51;0.93;;;0.93;;
7381;SDS011;3732;48.052;7.800;2022-09-17T03:59:18;1.33;;;1.17;;
7381;SDS011;3732;48.052;7.800;2022-09-17T04:01:45;1.57;;;1.20;;
7381;SDS011;3732;48.052;7.800;2022-09-17T04:04:14;2.93;;;1.33;;
7381;SDS011;3732;48.052;7.800;2022-09-17T04:06:41;1.83;;;1.30;;
7381;SDS011;3732;48.052;7.800;2022-09-17T04:09:08;2.47;;;1.27;;
7381;SDS011;3732;48.052;7.800;2022-09-17T04:11:35;1.27;;;1.17;;
7381;SDS011;3732;48.052;7.800;2022-09-17T04:14:02;1.97;;;1.10;;
7381;SDS011;3732;48.052;7.800;2022-09-17T04:16:30;3.17;;;1.30;;
7381;SDS011;3732;48.052;7.800;2022-09-17T04:18:57;2.37;;;1.10;;
7381;SDS011;3732;48.052;7.800;2022-09-17T04:21:25;1.80;;;1.30;;
7381;SDS011;3732;48.052;7.800;2022-09-17T04:23:53;1.13;;;1.07;;
7381;SDS011;3732;48.052;7.800;2022-09-17T04:26:20;1.80;;;1.17;;
7381;SDS011;3732;48.052;7.800;2022-09-17T04:28:47;1.40;;;0.97;;
7381;SDS011;3732;48.052;7.800;2022-09-17T04:31:14;3.27;;;1.27;;
7381;SDS011;3732;48.052;7.800;2022-09-17T04:33:41;2.00;;;1.37;;
7381;SDS011;3732;48.052;7.800;2022-09-17T04:36:09;6.00;;;1.43;;
7381;SDS011;3732;48.052;7.800;2022-09-17T04:38:37;1.23;;;1.10;;
7381;SDS011;3732;48.052;7.800;2022-09-17T04:41:05;1.30;;;1.30;;
7381;SDS011;3732;48.052;7.800;2022-09-17T04:43:32;2.87;;;1.10;;
7381;SDS011;3732;48.052;7.800;2022-09-17T04:45:59;2.17;;;1.20;;
7381;SDS011;3732;48.052;7.800;2022-09-17T04:48:27;2.67;;;1.23;;
7381;SDS011;3732;48.052;7.800;2022-09-17T04:50:54;1.40;;;1.10;;
7381;SDS011;3732;48.052;7.800;2022-09-17T04:53:21;3.97;;;1.70;;
7381;SDS011;3732;48.052;7.800;2022-09-17T04:55:50;2.07;;;1.57;;
7381;SDS011;3732;48.052;7.800;2022-09-17T04:58:17;1.90;;;1.30;;
7381;SDS011;3732;48.052;7.800;2022-09-17T05:00:44;1.33;;;1.30;;
7381;SDS011;3732;48.052;7.800;2022-09-17T05:03:11;3.30;;;1.63;;
7381;SDS011;3732;48.052;7.800;2022-09-17T05:05:38;3.90;;;1.47;;
7381;SDS011;3732;48.052;7.800;2022-09-17T05:08:06;1.83;;;1.50;;
7381;SDS011;3732;48.052;7.800;2022-09-17T05:10:33;2.07;;;1.80;;
7381;SDS011;3732;48.052;7.800;2022-09-17T05:13:02;2.43;;;1.60;;
7381;SDS011;3732;48.052;7.800;2022-09-17T05:15:31;1.83;;;1.50;;
7381;SDS011;3732;48.052;7.800;2022-09-17T05:17:58;4.00;;;1.47;;
7381;SDS011;3732;48.052;7.800;2022-09-17T05:20:26;2.70;;;1.70;;
7381;SDS011;3732;48.052;7.800;2022-09-17T05:22:53;2.70;;;1.80;;
7381;SDS011;3732;48.052;7.800;2022-09-17T05:25:21;1.90;;;1.57;;
7381;SDS011;3732;48.052;7.800;2022-09-17T05:27:49;2.37;;;1.80;;
7381;SDS011;3732;48.052;7.800;2022-09-17T05:30:18;4.43;;;1.70;;
7381;SDS011;3732;48.052;7.800;2022-09-17T05:32:45;2.60;;;1.80;;
7381;SDS011;3732;48.052;7.800;2022-09-17T05:35:13;2.80;;;1.83;;
7381;SDS011;3732;48.052;7.800;2022-09-17T05:37:40;3.03;;;1.83;;
7381;SDS011;3732;48.052;7.800;2022-09-17T05:40:08;1.87;;;1.77;;
7381;SDS011;3732;48.052;7.800;2022-09-17T05:42:35;3.37;;;1.77;;
7381;SDS011;3732;48.052;7.800;2022-09-17T05:45:03;2.10;;;1.90;;
7381;SDS011;3732;48.052;7.800;2022-09-17T05:47:32;3.57;;;1.80;;
7381;SDS011;3732;48.052;7.800;2022-09-17T05:50:00;2.20;;;1.87;;
7381;SDS011;3732;48.052;7.800;2022-09-17T05:52:27;2.33;;;1.70;;
7381;SDS011;3732;48.052;7.800;2022-09-17T05:54:54;2.17;;;1.63;;
7381;SDS011;3732;48.052;7.800;2022-09-17T05:57:22;2.67;;;1.90;;
7381;SDS011;3732;48.052;7.800;2022-09-17T05:59:49;1.60;;;1.50;;
7381;SDS011;3732;48.052;7.800;2022-09-17T06:02:16;3.60;;;2.10;;
7381;SDS011;3732;48.052;7.800;2022-09-17T06:04:45;2.23;;;1.87;;
7381;SDS011;3732;48.052;7.800;2022-09-17T06:07:13;2.20;;;2.00;;
7381;SDS011;3732;48.052;7.800;2022-09-17T06:09:40;2.67;;;1.90;;
7381;SDS011;3732;48.052;7.800;2022-09-17T06:12:07;1.90;;;1.80;;
7381;SDS011;3732;48.052;7.800;2022-09-17T06:14:35;1.90;;;1.80;;
7381;SDS011;3732;48.052;7.800;2022-09-17T06:17:02;2.40;;;1.70;;
7381;SDS011;3732;48.052;7.800;2022-09-17T06:19:29;3.33;;;1.97;;
7381;SDS011;3732;48.052;7.800;2022-09-17T06:21:58;1.83;;;1.73;;
7381;SDS011;3732;48.052;7.800;2022-09-17T06:24:26;6.13;;;1.90;;
7381;SDS011;3732;48.052;7.800;2022-09-17T06:26:53;3.67;;;2.20;;
7381;SDS011;3732;48.052;7.800;2022-09-17T06:29:20;2.67;;;2.00;;
7381;SDS011;3732;48.052;7.800;2022-09-17T06:31:47;2.87;;;1.87;;
7381;SDS011;3732;48.052;7.800;2022-09-17T06:34:15;2.60;;;1.87;;
7381;SDS011;3732;48.052;7.800;2022-09-17T06:36:42;2.80;;;1.87;;
7381;SDS011;3732;48.052;7.800;2022-09-17T06:39:11;4.37;;;1.80;;
7381;SDS011;3732;48.052;7.800;2022-09-17T06:41:40;3.03;;;1.80;;
7381;SDS011;3732;48.052;7.800;2022-09-17T06:44:07;2.27;;;1.90;;
7381;SDS011;3732;48.052;7.800;2022-09-17T06:46:34;3.10;;;1.97;;
7381;SDS011;3732;48.052;7.800;2022-09-17T06:49:02;2.23;;;1.50;;
7381;SDS011;3732;48.052;7.800;2022-09-17T06:51:29;2.67;;;2.00;;
7381;SDS011;3732;48.052;7.800;2022-09-17T06:53:56;4.37;;;1.80;;
7381;SDS011;3732;48.052;7.800;2022-09-17T06:56:25;2.27;;;2.10;;
7381;SDS011;3732;48.052;7.800;2022-09-17T06:58:52;3.73;;;1.90;;
7381;SDS011;3732;48.052;7.800;2022-09-17T07:01:20;3.10;;;1.80;;
7381;SDS011;3732;48.052;7.800;2022-09-17T07:03:50;5.07;;;1.60;;
7381;SDS011;3732;48.052;7.800;2022-09-17T07:06:17;2.17;;;2.00;;
7381;SDS011;3732;48.052;7.800;2022-09-17T07:08:44;3.07;;;1.53;;
7381;SDS011;3732;48.052;7.800;2022-09-17T07:11:12;1.80;;;1.63;;
7381;SDS011;3732;48.052;7.800;2022-09-17T07:13:41;2.03;;;1.80;;
7381;SDS011;3732;48.052;7.800;2022-09-17T07:16:08;2.40;;;1.73;;
7381;SDS011;3732;48.052;7.800;2022-09-17T07:18:36;2.07;;;1.70;;
7381;SDS011;3732;48.052;7.800;2022-09-17T07:21:04;2.90;;;2.07;;
7381;SDS011;3732;48.052;7.800;2022-09-17T07:23:32;1.50;;;1.40;;
7381;SDS011;3732;48.052;7.800;2022-09-17T07:26:00;2.50;;;1.27;;
7381;SDS011;3732;48.052;7.800;2022-09-17T07:28:28;1.97;;;1.20;;
7381;SDS011;3732;48.052;7.800;2022-09-17T07:30:57;1.50;;;1.40;;
7381;SDS011;3732;48.052;7.800;2022-09-17T07:33:25;1.47;;;1.33;;
7381;SDS011;3732;48.052;7.800;2022-09-17T07:35:53;1.70;;;1.60;;
7381;SDS011;3732;48.052;7.800;2022-09-17T07:38:23;1.83;;;1.50;;
7381;SDS011;3732;48.052;7.800;2022-09-17T07:40:54;3.57;;;1.63;;
7381;SDS011;3732;48.052;7.800;2022-09-17T07:43:22;2.37;;;1.40;;
7381;SDS011;3732;48.052;7.800;2022-09-17T07:45:50;3.77;;;1.50;;
7381;SDS011;3732;48.052;7.800;2022-09-17T07:48:18;1.47;;;1.37;;
7381;SDS011;3732;48.052;7.800;2022-09-17T07:50:46;1.93;;;1.73;;
7381;SDS011;3732;48.052;7.800;2022-09-17T07:53:13;1.93;;;1.57;;
7381;SDS011;3732;48.052;7.800;2022-09-17T07:55:40;4.03;;;1.47;;
7381;SDS011;3732;48.052;7.800;2022-09-17T07:58:08;1.67;;;1.40;;
7381;SDS011;3732;48.052;7.800;2022-09-17T08:00:35;1.53;;;1.13;;
7381;SDS011;3732;48.052;7.800;2022-09-17T08:03:02;2.13;;;1.50;;
7381;SDS011;3732;48.052;7.800;2022-09-17T08:05:32;2.93;;;1.40;;
7381;SDS011;3732;48.052;7.800;2022-09-17T08:07:59;1.00;;;1.00;;
7381;SDS011;3732;48.052;7.800;2022-09-17T08:10:26;1.70;;;1.10;;
7381;SDS011;3732;48.052;7.800;2022-09-17T08:12:55;2.00;;;1.30;;
7381;SDS011;3732;48.052;7.800;2022-09-17T08:15:22;0.97;;;0.87;;
7381;SDS011;3732;48.052;7.800;2022-09-17T08:17:50;2.43;;;1.90;;
7381;SDS011;3732;48.052;7.800;2022-09-17T08:20:17;1.53;;;1.23;;
7381;SDS011;3732;48.052;7.800;2022-09-17T08:22:46;2.50;;;1.10;;
7381;SDS011;3732;48.052;7.800;2022-09-17T08:25:13;0.97;;;0.97;;
7381;SDS011;3732;48.052;7.800;2022-09-17T08:27:40;1.27;;;1.17;;
7381;SDS011;3732;48.052;7.800;2022-09-17T08:30:08;2.37;;;1.30;;
7381;SDS011;3732;48.052;7.800;2022-09-17T08:32:35;3.33;;;1.20;;
7381;SDS011;3732;48.052;7.800;2022-09-17T08:35:03;1.67;;;1.43;;
7381;SDS011;3732;48.052;7.800;2022-09-17T08:37:31;1.87;;;1.43;;
7381;SDS011;3732;48.052;7.800;2022-09-17T08:40:00;1.70;;;1.23;;
7381;SDS011;3732;48.052;7.800;2022-09-17T08:42:29;1.90;;;1.30;;
7381;SDS011;3732;48.052;7.800;2022-09-17T08:44:58;3.53;;;1.23;;
7381;SDS011;3732;48.052;7.800;2022-09-17T08:47:29;2.17;;;1.10;;
7381;SDS011;3732;48.052;7.800;2022-09-17T08:50:00;3.40;;;1.30;;
7381;SDS011;3732;48.052;7.800;2022-09-17T08:55:19;1.67;;;1.30;;
7381;SDS011;3732;48.052;7.800;2022-09-17T08:57:50;3.50;;;1.07;;
7381;SDS011;3732;48.052;7.800;2022-09-17T09:00:20;1.97;;;1.20;;
7381;SDS011;3732;48.052;7.800;2022-09-17T09:02:52;3.07;;;1.17;;
7381;SDS011;3732;48.052;7.800;2022-09-17T09:05:21;1.53;;;1.30;;
7381;SDS011;3732;48.052;7.800;2022-09-17T09:07:51;2.20;;;1.07;;
7381;SDS011;3732;48.052;7.800;2022-09-17T09:10:23;2.10;;;1.13;;
7381;SDS011;3732;48.052;7.800;2022-09-17T09:12:51;3.80;;;1.27;;
7381;SDS011;3732;48.052;7.800;2022-09-17T09:18:11;2.53;;;1.13;;
7381;SDS011;3732;48.052;7.800;2022-09-17T09:20:42;5.03;;;1.30;;
7381;SDS011;3732;48.052;7.800;2022-09-17T09:23:14;3.03;;;1.43;;
7381;SDS011;3732;48.052;7.800;2022-09-17T09:25:50;2.23;;;1.30;;
7381;SDS011;3732;48.052;7.800;2022-09-17T09:28:26;4.40;;;1.50;;
7381;SDS011;3732;48.052;7.800;2022-09-17T09:30:57;2.47;;;1.50;;
7381;SDS011;3732;48.052;7.800;2022-09-17T09:33:29;2.70;;;1.60;;
7381;SDS011;3732;48.052;7.800;2022-09-17T09:35:57;3.53;;;2.17;;
7381;SDS011;3732;48.052;7.800;2022-09-17T09:38:28;1.97;;;1.13;;
7381;SDS011;3732;48.052;7.800;2022-09-17T09:40:59;3.80;;;1.37;;
7381;SDS011;3732;48.052;7.800;2022-09-17T09:43:30;3.20;;;1.27;;
7381;SDS011;3732;48.052;7.800;2022-09-17T09:46:04;2.13;;;1.20;;
7381;SDS011;3732;48.052;7.800;2022-09-17T09:48:36;2.23;;;1.23;;
7381;SDS011;3732;48.052;7.800;2022-09-17T09:51:10;1.90;;;1.30;;
7381;SDS011;3732;48.052;7.800;2022-09-17T09:53:43;2.53;;;1.67;;
7381;SDS011;3732;48.052;7.800;2022-09-17T09:56:23;4.53;;;1.67;;
7381;SDS011;3732;48.052;7.800;2022-09-17T09:58:54;3.10;;;1.40;;
7381;SDS011;3732;48.052;7.800;2022-09-17T10:01:21;3.63;;;1.47;;
7381;SDS011;3732;48.052;7.800;2022-09-17T10:03:50;5.80;;;1.70;;
7381;SDS011;3732;48.052;7.800;2022-09-17T10:06:22;3.73;;;1.50;;
7381;SDS011;3732;48.052;7.800;2022-09-17T10:09:08;1.93;;;1.37;;
7381;SDS011;3732;48.052;7.800;2022-09-17T10:11:37;2.50;;;1.40;;
7381;SDS011;3732;48.052;7.800;2022-09-17T10:16:49;2.40;;;1.50;;
7381;SDS011;3732;48.052;7.800;2022-09-17T10:19:36;2.10;;;1.43;;
7381;SDS011;3732;48.052;7.800;2022-09-17T10:22:16;2.87;;;1.43;;
7381;SDS011;3732;48.052;7.800;2022-09-17T10:24:44;2.70;;;1.30;;
7381;SDS011;3732;48.052;7.800;2022-09-17T10:27:17;3.17;;;1.50;;
7381;SDS011;3732;48.052;7.800;2022-09-17T10:29:46;3.50;;;1.50;;
7381;SDS011;3732;48.052;7.800;2022-09-17T10:32:15;4.43;;;1.47;;
7381;SDS011;3732;48.052;7.800;2022-09-17T10:34:55;5.43;;;1.70;;
7381;SDS011;3732;48.052;7.800;2022-09-17T10:37:33;1.60;;;1.43;;
7381;SDS011;3732;48.052;7.800;2022-09-17T10:40:01;3.63;;;1.50;;
7381;SDS011;3732;48.052;7.800;2022-09-17T10:42:50;2.47;;;1.37;;
7381;SDS011;3732;48.052;7.800;2022-09-17T10:45:22;4.00;;;1.07;;
7381;SDS011;3732;48.052;7.800;2022-09-17T10:47:49;2.90;;;1.10;;
7381;SDS011;3732;48.052;7.800;2022-09-17T10:50:17;1.97;;;1.40;;
7381;SDS011;3732;48.052;7.800;2022-09-17T10:52:45;4.33;;;1.47;;
7381;SDS011;3732;48.052;7.800;2022-09-17T10:55:21;3.30;;;1.37;;
7381;SDS011;3732;48.052;7.800;2022-09-17T10:57:59;3.07;;;1.43;;
7381;SDS011;3732;48.052;7.800;2022-09-17T11:00:29;1.73;;;1.20;;
7381;SDS011;3732;48.052;7.800;2022-09-17T11:06:02;1.67;;;1.40;;
7381;SDS011;3732;48.052;7.800;2022-09-17T11:08:32;2.17;;;1.63;;
7381;SDS011;3732;48.052;7.800;2022-09-17T11:11:03;1.93;;;1.37;;
7381;SDS011;3732;48.052;7.800;2022-09-17T11:13:36;2.47;;;1.20;;
7381;SDS011;3732;48.052;7.800;2022-09-17T11:16:15;5.33;;;1.33;;
7381;SDS011;3732;48.052;7.800;2022-09-17T11:18:45;1.40;;;0.90;;
7381;SDS011;3732;48.052;7.800;2022-09-17T11:21:20;2.40;;;1.10;;
7381;SDS011;3732;48.052;7.800;2022-09-17T11:26:44;1.13;;;0.80;;
7381;SDS011;3732;48.052;7.800;2022-09-17T11:29:26;1.50;;;1.10;;
7381;SDS011;3732;48.052;7.800;2022-09-17T11:31:58;2.73;;;1.30;;
7381;SDS011;3732;48.052;7.800;2022-09-17T11:34:29;3.00;;;1.33;;
7381;SDS011;3732;48.052;7.800;2022-09-17T11:37:02;1.20;;;1.07;;
7381;SDS011;3732;48.052;7.800;2022-09-17T11:39:32;2.00;;;0.87;;
7381;SDS011;3732;48.052;7.800;2022-09-17T11:42:02;1.50;;;0.97;;
7381;SDS011;3732;48.052;7.800;2022-09-17T11:44:34;0.97;;;0.93;;
7381;SDS011;3732;48.052;7.800;2022-09-17T11:47:06;2.73;;;1.30;;
7381;SDS011;3732;48.052;7.800;2022-09-17T11:49:36;1.43;;;1.00;;
7381;SDS011;3732;48.052;7.800;2022-09-17T11:52:05;2.90;;;1.93;;
7381;SDS011;3732;48.052;7.800;2022-09-17T11:54:37;2.43;;;1.20;;
7381;SDS011;3732;48.052;7.800;2022-09-17T11:57:08;4.03;;;1.20;;
7381;SDS011;3732;48.052;7.800;2022-09-17T11:59:38;1.53;;;0.93;;
7381;SDS011;3732;48.052;7.800;2022-09-17T12:02:10;2.63;;;0.97;;
7381;SDS011;3732;48.052;7.800;2022-09-17T12:04:42;1.10;;;0.90;;
7381;SDS011;3732;48.052;7.800;2022-09-17T12:07:20;2.20;;;1.00;;
7381;SDS011;3732;48.052;7.800;2022-09-17T12:09:52;3.17;;;1.20;;
7381;SDS011;3732;48.052;7.800;2022-09-17T12:12:21;1.30;;;1.20;;
7381;SDS011;3732;48.052;7.800;2022-09-17T12:14:52;1.27;;;1.13;;
7381;SDS011;3732;48.052;7.800;2022-09-17T12:17:21;2.30;;;1.20;;
7381;SDS011;3732;48.052;7.800;2022-09-17T12:19:50;2.50;;;1.40;;
7381;SDS011;3732;48.052;7.800;2022-09-17T12:22:20;2.00;;;1.07;;
7381;SDS011;3732;48.052;7.800;2022-09-17T12:24:49;1.37;;;1.00;;
7381;SDS011;3732;48.052;7.800;2022-09-17T12:27:19;3.37;;;1.23;;
7381;SDS011;3732;48.052;7.800;2022-09-17T12:30:02;3.07;;;1.13;;
7381;SDS011;3732;48.052;7.800;2022-09-17T12:32:33;1.60;;;0.93;;
7381;SDS011;3732;48.052;7.800;2022-09-17T12:35:04;0.73;;;0.67;;
7381;SDS011;3732;48.052;7.800;2022-09-17T12:37:34;0.80;;;0.80;;
7381;SDS011;3732;48.052;7.800;2022-09-17T12:40:06;1.63;;;1.20;;
7381;SDS011;3732;48.052;7.800;2022-09-17T12:42:39;1.10;;;1.00;;
7381;SDS011;3732;48.052;7.800;2022-09-17T12:48:00;1.33;;;0.83;;
7381;SDS011;3732;48.052;7.800;2022-09-17T12:50:37;1.27;;;1.03;;
7381;SDS011;3732;48.052;7.800;2022-09-17T12:53:12;1.50;;;0.90;;
7381;SDS011;3732;48.052;7.800;2022-09-17T12:55:46;1.40;;;0.80;;
7381;SDS011;3732;48.052;7.800;2022-09-17T12:58:20;1.00;;;0.90;;
7381;SDS011;3732;48.052;7.800;2022-09-17T13:00:51;2.67;;;1.50;;
7381;SDS011;3732;48.052;7.800;2022-09-17T13:03:22;1.10;;;1.00;;
7381;SDS011;3732;48.052;7.800;2022-09-17T13:08:50;3.40;;;1.20;;
7381;SDS011;3732;48.052;7.800;2022-09-17T13:14:09;1.70;;;0.90;;
7381;SDS011;3732;48.052;7.800;2022-09-17T13:16:42;1.10;;;1.00;;
7381;SDS011;3732;48.052;7.800;2022-09-17T13:19:18;1.20;;;1.10;;
7381;SDS011;3732;48.052;7.800;2022-09-17T13:21:51;1.87;;;0.97;;
7381;SDS011;3732;48.052;7.800;2022-09-17T13:24:20;1.30;;;0.80;;
7381;SDS011;3732;48.052;7.800;2022-09-17T13:26:49;1.33;;;1.10;;
7381;SDS011;3732;48.052;7.800;2022-09-17T13:31:59;1.43;;;1.33;;
7381;SDS011;3732;48.052;7.800;2022-09-17T13:34:28;2.50;;;0.93;;
7381;SDS011;3732;48.052;7.800;2022-09-17T13:36:57;0.97;;;0.70;;
7381;SDS011;3732;48.052;7.800;2022-09-17T13:39:31;2.03;;;1.30;;
7381;SDS011;3732;48.052;7.800;2022-09-17T13:42:00;1.10;;;1.00;;
7381;SDS011;3732;48.052;7.800;2022-09-17T13:44:29;0.90;;;0.80;;
7381;SDS011;3732;48.052;7.800;2022-09-17T13:47:06;1.07;;;0.70;;
7381;SDS011;3732;48.052;7.800;2022-09-17T13:49:35;3.53;;;1.20;;
7381;SDS011;3732;48.052;7.800;2022-09-17T13:52:09;1.17;;;0.93;;
7381;SDS011;3732;48.052;7.800;2022-09-17T13:54:36;1.10;;;1.00;;
7381;SDS011;3732;48.052;7.800;2022-09-17T13:57:11;5.53;;;1.07;;
7381;SDS011;3732;48.052;7.800;2022-09-17T13:59:50;1.43;;;0.70;;
7381;SDS011;3732;48.052;7.800;2022-09-17T14:02:28;2.87;;;1.10;;
7381;SDS011;3732;48.052;7.800;2022-09-17T14:07:46;1.33;;;1.00;;
7381;SDS011;3732;48.052;7.800;2022-09-17T14:10:32;1.33;;;1.00;;
7381;SDS011;3732;48.052;7.800;2022-09-17T14:13:20;1.10;;;0.73;;
7381;SDS011;3732;48.052;7.800;2022-09-17T14:16:00;2.23;;;1.00;;
7381;SDS011;3732;48.052;7.800;2022-09-17T14:21:22;0.90;;;0.73;;
7381;SDS011;3732;48.052;7.800;2022-09-17T14:23:53;1.03;;;0.70;;
7381;SDS011;3732;48.052;7.800;2022-09-17T14:26:24;1.47;;;0.80;;
7381;SDS011;3732;48.052;7.800;2022-09-17T14:28:55;1.57;;;0.97;;
7381;SDS011;3732;48.052;7.800;2022-09-17T14:31:29;0.87;;;0.80;;
7381;SDS011;3732;48.052;7.800;2022-09-17T14:33:57;1.00;;;0.70;;
7381;SDS011;3732;48.052;7.800;2022-09-17T14:36:24;1.63;;;0.90;;
7381;SDS011;3732;48.052;7.800;2022-09-17T14:38:53;0.57;;;0.57;;
7381;SDS011;3732;48.052;7.800;2022-09-17T14:41:23;2.90;;;0.93;;
7381;SDS011;3732;48.052;7.800;2022-09-17T14:43:51;2.47;;;1.30;;
7381;SDS011;3732;48.052;7.800;2022-09-17T14:46:21;1.90;;;0.73;;
7381;SDS011;3732;48.052;7.800;2022-09-17T14:48:49;1.13;;;0.87;;
7381;SDS011;3732;48.052;7.800;2022-09-17T14:51:24;1.50;;;0.70;;
7381;SDS011;3732;48.052;7.800;2022-09-17T14:54:11;0.97;;;0.80;;
7381;SDS011;3732;48.052;7.800;2022-09-17T14:56:43;0.80;;;0.80;;
7381;SDS011;3732;48.052;7.800;2022-09-17T14:59:13;0.70;;;0.70;;
7381;SDS011;3732;48.052;7.800;2022-09-17T15:01:45;0.70;;;0.70;;
7381;SDS011;3732;48.052;7.800;2022-09-17T15:04:20;2.33;;;0.80;;
7381;SDS011;3732;48.052;7.800;2022-09-17T15:06:48;1.00;;;0.60;;
7381;SDS011;3732;48.052;7.800;2022-09-17T15:09:17;0.70;;;0.70;;
7381;SDS011;3732;48.052;7.800;2022-09-17T15:11:45;0.60;;;0.50;;
7381;SDS011;3732;48.052;7.800;2022-09-17T15:14:15;1.33;;;0.70;;
7381;SDS011;3732;48.052;7.800;2022-09-17T15:16:45;4.43;;;1.03;;
7381;SDS011;3732;48.052;7.800;2022-09-17T15:19:13;1.47;;;0.90;;
7381;SDS011;3732;48.052;7.800;2022-09-17T15:21:45;1.20;;;0.80;;
7381;SDS011;3732;48.052;7.800;2022-09-17T15:24:14;1.33;;;0.90;;
7381;SDS011;3732;48.052;7.800;2022-09-17T15:26:46;1.60;;;1.03;;
7381;SDS011;3732;48.052;7.800;2022-09-17T15:29:15;2.33;;;1.00;;
7381;SDS011;3732;48.052;7.800;2022-09-17T15:31:42;1.00;;;0.70;;
7381;SDS011;3732;48.052;7.800;2022-09-17T15:34:09;1.97;;;0.73;;
7381;SDS011;3732;48.052;7.800;2022-09-17T15:36:37;0.80;;;0.80;;
7381;SDS011;3732;48.052;7.800;2022-09-17T15:41:54;1.20;;;0.70;;
7381;SDS011;3732;48.052;7.800;2022-09-17T15:44:22;1.10;;;0.73;;
7381;SDS011;3732;48.052;7.800;2022-09-17T15:46:50;2.23;;;1.00;;
7381;SDS011;3732;48.052;7.800;2022-09-17T15:49:25;1.23;;;1.00;;
7381;SDS011;3732;48.052;7.800;2022-09-17T15:51:53;1.77;;;1.00;;
7381;SDS011;3732;48.052;7.800;2022-09-17T15:54:27;3.10;;;1.10;;
7381;SDS011;3732;48.052;7.800;2022-09-17T15:56:56;1.80;;;1.00;;
7381;SDS011;3732;48.052;7.800;2022-09-17T15:59:25;3.27;;;1.40;;
7381;SDS011;3732;48.052;7.800;2022-09-17T16:01:53;1.87;;;1.30;;
7381;SDS011;3732;48.052;7.800;2022-09-17T16:04:27;3.50;;;1.30;;
7381;SDS011;3732;48.052;7.800;2022-09-17T16:06:59;1.87;;;1.47;;
7381;SDS011;3732;48.052;7.800;2022-09-17T16:09:37;2.73;;;0.90;;